Sun City, South Carolina
Current Conditions -  °F | °C
As of 8:50 AM on Wednesday 26 Nov 2014 (Local Time) from KHXD Reporting Station
Overcast Overcast  
Wind Chill: 52°   Ceiling: 1100
Heat Index: 52°   Visibility: 7mi
Dew Point: 52°   Wind: 12mph
Humidity: 100%   Direction: 330°NNW
Pressure: 29.97"   Gusts: 21mph
Location:  32.3283°N, 80.8483°W
Report Text: KHXD 261350Z 33010G18KT 7SM OVC011 11/11 A2997
Loading
Personal Weather Stations






























Interactive Weather Map New forecast layout! Learn more

10-Day Weather Forecast

Advertisements
Track Severe Weather on mobile